MyTimes logo

TIMES

Webb Imagery

17/01/1999
Cowes Classic
500m Swim / 4.0km Run - Local Residents

(Click on competitor name to view personalised results)

Name
Race #
Category
Team Name
Time
(h:mm:ss)
Avg Speed
km/hr
OAll
Place
Cat
Place
HOLLINS Peter#73Local Senior Male0:23:52 11.3 11
FLEISNER Rob#64Local Senior Male0:25:38 10.5 22
YUSKO William#197Local Over 40 Male0:26:09 10.3 31
DALLINGER Chris#70Local Senior Male0:26:51 10.1 43
GARRETT Geoff#68Local Senior Male0:27:25 9.8 54
BRADEN Michael#14Local Senior Male0:27:57 9.7 65
LUNN Paul#53Local Senior Male0:28:02 9.6 76
HOGHTON Daniel#160Local Junior Male0:28:11 9.6 81
HEWETT Noel#88Local Senior Male0:28:16 9.6 97
MARSHALL Luke#71Local Senior Male0:28:18 9.5 108
HAMMOND Henry#180Local Over 40 Male0:29:02 9.3 112
KENT Ryan#199Local Junior Male0:29:22 9.2 122
YUSKO Daniel#196Local Junior Male0:29:38 9.1 133
CHISHOLM Andy#19Local Senior Male0:29:54 9 149
MCHENRY Andrew#218Local Junior Male0:30:13 8.9 154
MCHENRY Simon#214Local Junior Male0:30:23 8.9 165
MARUM Stuart#239Local Junior Male0:30:33 8.8 176
CARTER Dean#158Local Over 40 Male0:30:37 8.8 183
DAVIE Angela#151Local Senior Female0:30:40 8.8 191
SPOTTISWOOD James#244Local Junior Male0:30:43 8.8 207
DALLINGER Brian#241Local Over 40 Male0:30:47 8.8 214
SCHEPMAKER Nick#54Local Senior Male0:30:54 8.7 2210
SUNDERLAND Peter#194Local Over 40 Male0:31:02 8.7 235
CHURCHILL Trent#28Local Senior Male0:31:10 8.7 2411
MATTHEWS Robert#193Local Over 40 Male0:31:10 8.7 256
KEADY Richard#184Local Over 40 Male0:31:27 8.6 267
FLEISNER Paul#181Local Over 40 Male0:32:49 8.2 278
DALEY Rob#57Local Senior Male0:32:50 8.2 2812
CAMPBELL Daniel#237Local Junior Male0:34:59 7.7 298
FLENTJE Kate#200Local Junior Female0:36:52 7.3 301
YUSKO Imogine#195Local Junior Female0:37:29 7.2 312
MURDOCH Andrew#83Local Senior Male0:39:59 6.8 3213
REEK George#245Local Over 40 Male0:41:08 6.6 339
ALCOCK Susan#182Local Senior Female0:44:12 6.1 342